Time;durP1;ratioP1;P1;durP2;ratioP2;P2;SDS_P1;SDS_P2;PMS_P1;PMS_P2;Temp;Humidity;BMP_temperature;BMP_pressure;BME280_temperature;BME280_humidity;BME280_pressure;Samples;Min_cycle;Max_cycle;Signal;HPM_P1;HPM_P2
2021/07/23 00:02:13;;;;;;;0.50;0.50;;;;;;;12.76;100.00;100564.25;1734979;82;21033;-90
2021/07/23 00:04:43;;;;;;;0.62;0.53;;;;;;;12.73;100.00;100560.16;1731598;82;21085;-89
2021/07/23 00:07:19;;;;;;;0.80;0.70;;;;;;;12.69;100.00;100560.50;1682676;84;21026;-92
2021/07/23 00:09:46;;;;;;;1.85;0.90;;;;;;;12.63;100.00;100558.91;1685451;85;21113;-89
2021/07/23 00:12:13;;;;;;;1.50;0.93;;;;;;;12.61;100.00;100566.07;1679810;84;21064;-89
2021/07/23 00:14:39;;;;;;;1.10;0.50;;;;;;;12.59;100.00;100570.20;1712405;83;21074;-88
2021/07/23 00:17:06;;;;;;;1.35;0.70;;;;;;;12.54;100.00;100571.08;1695981;83;21030;-89
2021/07/23 00:19:33;;;;;;;0.70;0.70;;;;;;;12.52;100.00;100572.47;1716557;81;21543;-89
2021/07/23 00:21:59;;;;;;;0.40;0.40;;;;;;;12.49;100.00;100567.02;1716834;83;21046;-87
2021/07/23 00:24:26;;;;;;;1.20;1.00;;;;;;;12.47;100.00;100570.59;1678782;84;21090;-86
2021/07/23 00:26:53;;;;;;;0.88;0.62;;;;;;;12.45;100.00;100568.13;1687682;85;21121;-88
2021/07/23 00:29:20;;;;;;;1.85;0.80;;;;;;;12.43;100.00;100568.16;1687539;85;21560;-86
2021/07/23 00:31:47;;;;;;;0.57;0.45;;;;;;;12.39;100.00;100563.82;1688754;83;21054;-89
2021/07/23 00:34:14;;;;;;;1.10;0.78;;;;;;;12.35;100.00;100573.71;1687860;85;21125;-86
2021/07/23 00:36:41;;;;;;;0.60;0.50;;;;;;;12.31;100.00;100568.53;1687667;84;21052;-86
2021/07/23 00:39:08;;;;;;;0.70;0.70;;;;;;;12.28;100.00;100572.41;1687874;85;21145;-89
2021/07/23 00:41:34;;;;;;;0.88;0.75;;;;;;;12.24;100.00;100566.15;1668558;84;21118;-87
2021/07/23 00:44:01;;;;;;;1.57;1.10;;;;;;;12.23;100.00;100571.91;1688722;84;21512;-86
2021/07/23 00:46:31;;;;;;;1.02;0.53;;;;;;;12.22;100.00;100577.13;1667557;85;21133;-85
2021/07/23 00:48:58;;;;;;;1.25;0.70;;;;;;;12.18;100.00;100574.69;1685413;85;21077;-89
2021/07/23 00:51:25;;;;;;;0.95;0.62;;;;;;;12.15;100.00;100580.75;1714218;82;21113;-89
2021/07/23 00:53:51;;;;;;;0.65;0.60;;;;;;;12.12;100.00;100575.84;1716410;83;21058;-89
2021/07/23 00:56:20;;;;;;;0.60;0.55;;;;;;;12.06;100.00;100579.16;1695855;83;21041;-90
2021/07/23 00:58:48;;;;;;;1.25;1.07;;;;;;;11.98;100.00;100580.59;1706687;83;21124;-88
2021/07/23 01:01:15;;;;;;;1.00;0.65;;;;;;;11.92;100.00;100579.01;1689606;83;21101;-87
2021/07/23 01:03:42;;;;;;;1.00;0.47;;;;;;;11.88;100.00;100580.67;1687926;85;21042;-87
2021/07/23 01:06:11;;;;;;;1.07;0.50;;;;;;;11.84;100.00;100576.83;1688166;85;21042;-90
2021/07/23 01:08:38;;;;;;;0.85;0.62;;;;;;;11.81;100.00;100581.51;1700077;82;21096;-87
2021/07/23 01:11:05;;;;;;;0.70;0.70;;;;;;;11.77;100.00;100579.91;1716562;83;21734;-87
2021/07/23 01:13:36;;;;;;;1.20;0.77;;;;;;;11.75;100.00;100580.73;1714674;82;21554;-90
2021/07/23 01:16:03;;;;;;;1.70;1.25;;;;;;;11.74;100.00;100582.38;1740454;81;22227;-90
2021/07/23 01:18:30;;;;;;;0.62;0.62;;;;;;;11.73;100.00;100576.64;1708880;83;21504;-91
2021/07/23 01:20:59;;;;;;;1.27;1.00;;;;;;;11.70;100.00;100579.95;1708920;83;21595;-90
2021/07/23 01:23:34;;;;;;;2.20;1.00;;;;;;;11.69;100.00;100576.37;1704835;82;21039;-87
2021/07/23 01:26:04;;;;;;;1.52;0.78;;;;;;;11.69;100.00;100572.83;1699960;84;21576;-87
2021/07/23 01:28:35;;;;;;;2.22;0.85;;;;;;;11.67;100.00;100573.13;1700705;83;21050;-90
2021/07/23 01:31:04;;;;;;;1.00;0.68;;;;;;;11.65;100.00;100573.13;1700245;84;21059;-88
2021/07/23 01:33:32;;;;;;;1.57;0.60;;;;;;;11.63;100.00;100574.23;1701987;83;21019;-87
2021/07/23 01:36:02;;;;;;;1.00;0.57;;;;;;;11.62;100.00;100583.56;1700155;84;21126;-87
2021/07/23 01:38:31;;;;;;;1.40;0.93;;;;;;;11.61;100.00;100582.46;1700417;84;21070;-90
2021/07/23 01:40:58;;;;;;;2.83;1.05;;;;;;;11.58;100.00;100586.58;1723215;83;21185;-91
2021/07/23 01:43:25;;;;;;;2.55;0.60;;;;;;;11.56;100.00;100584.67;1729690;82;22129;-89
2021/07/23 01:45:53;;;;;;;1.55;1.00;;;;;;;11.54;100.00;100581.39;1729488;82;21050;-90
2021/07/23 01:48:38;;;;;;;1.22;1.12;;;;;;;11.48;100.00;100582.53;1729658;82;21102;-88
2021/07/23 01:51:06;;;;;;;1.95;1.02;;;;;;;11.40;100.00;100580.41;1664856;84;21100;-88
2021/07/23 01:53:33;;;;;;;2.35;0.75;;;;;;;11.35;100.00;100579.87;1701313;84;22077;-88
2021/07/23 01:55:59;;;;;;;1.75;0.90;;;;;;;11.31;100.00;100580.16;1680006;84;21133;-87
2021/07/23 01:58:30;;;;;;;1.40;0.98;;;;;;;11.30;100.00;100577.17;1701269;83;21074;-91
2021/07/23 02:00:57;;;;;;;0.85;0.82;;;;;;;11.28;100.00;100574.45;1700362;84;21034;-90
2021/07/23 02:03:26;;;;;;;7.05;1.10;;;;;;;11.25;100.00;100576.34;1700254;84;20935;-91
2021/07/23 02:05:52;;;;;;;1.00;0.68;;;;;;;11.22;100.00;100583.76;1702435;83;21035;-87
2021/07/23 02:08:19;;;;;;;2.58;0.78;;;;;;;11.19;100.00;100580.48;1700663;84;22046;-90
2021/07/23 02:10:46;;;;;;;2.00;1.30;;;;;;;11.17;100.00;100577.20;1679759;84;21259;-91
2021/07/23 02:13:14;;;;;;;0.98;0.88;;;;;;;11.15;100.00;100582.16;1700037;83;21058;-90
2021/07/23 02:15:44;;;;;;;0.60;0.57;;;;;;;11.15;100.00;100577.21;1726714;81;20974;-88
2021/07/23 02:18:12;;;;;;;0.93;0.82;;;;;;;11.15;100.00;100579.42;1746341;82;21033;-88
2021/07/23 02:20:42;;;;;;;0.80;0.75;;;;;;;11.15;100.00;100579.95;1746526;82;21069;-89
2021/07/23 02:23:08;;;;;;;2.00;1.05;;;;;;;11.14;100.00;100579.13;1707959;82;21104;-89
2021/07/23 02:25:37;;;;;;;1.15;1.05;;;;;;;11.13;100.00;100582.98;1746923;80;21014;-87
2021/07/23 02:28:04;;;;;;;1.20;1.10;;;;;;;11.12;100.00;100588.16;1747612;80;21081;-90
2021/07/23 02:30:31;;;;;;;1.05;0.80;;;;;;;11.13;100.00;100585.72;1708788;82;21040;-88
2021/07/23 02:33:02;;;;;;;2.07;1.20;;;;;;;11.13;100.00;100581.61;1766372;80;21623;-87
2021/07/23 02:35:30;;;;;;;3.22;1.15;;;;;;;11.15;100.00;100579.95;1777587;80;21544;-90
2021/07/23 02:37:57;;;;;;;3.95;1.52;;;;;;;11.18;100.00;100581.59;1777543;78;21061;-88
2021/07/23 02:40:23;;;;;;;1.95;1.55;;;;;;;11.23;100.00;100585.41;1777158;80;21073;-90
2021/07/23 02:42:52;;;;;;;2.00;1.00;;;;;;;11.26;100.00;100582.11;1757958;80;21022;-87
2021/07/23 02:45:19;;;;;;;1.65;1.12;;;;;;;11.31;100.00;100585.63;1747164;82;21053;-87
2021/07/23 02:47:46;;;;;;;1.30;0.70;;;;;;;11.39;100.00;100589.69;1743375;82;21062;-91
2021/07/23 02:50:12;;;;;;;1.22;1.00;;;;;;;11.47;100.00;100583.63;1710239;80;21013;-88
2021/07/23 02:52:41;;;;;;;2.62;1.00;;;;;;;11.54;100.00;100586.87;1776291;80;21026;-87
2021/07/23 02:55:09;;;;;;;2.00;1.10;;;;;;;11.62;100.00;100587.66;1777653;80;21011;-87
2021/07/23 02:57:37;;;;;;;2.15;1.17;;;;;;;11.73;100.00;100583.48;1775318;78;21069;-87
2021/07/23 03:00:05;;;;;;;1.47;1.07;;;;;;;11.83;100.00;100590.27;1777391;80;21038;-90
2021/07/23 03:02:34;;;;;;;1.15;0.90;;;;;;;11.93;100.00;100586.66;1776947;80;21025;-90
2021/07/23 03:05:01;;;;;;;3.77;1.32;;;;;;;12.02;100.00;100592.63;1764002;80;21072;-90
2021/07/23 03:07:28;;;;;;;2.55;1.17;;;;;;;12.12;100.00;100579.96;1760170;80;21045;-91
2021/07/23 03:09:55;;;;;;;1.00;0.95;;;;;;;12.19;100.00;100585.90;1746358;80;21021;-90
2021/07/23 03:12:21;;;;;;;1.52;1.02;;;;;;;12.28;100.00;100584.19;1725799;82;21077;-90
2021/07/23 03:14:50;;;;;;;6.20;1.35;;;;;;;12.38;100.00;100588.76;1745642;81;21029;-88
2021/07/23 03:17:25;;;;;;;0.82;0.68;;;;;;;12.47;100.00;100586.48;1762628;80;21458;-90
2021/07/23 03:19:53;;;;;;;3.62;1.07;;;;;;;12.56;100.00;100578.46;1777249;80;21037;-87
2021/07/23 03:22:20;;;;;;;1.72;1.10;;;;;;;12.66;100.00;100579.72;1777742;80;21021;-88
2021/07/23 03:24:48;;;;;;;1.45;1.32;;;;;;;12.80;100.00;100583.95;1759222;78;20945;-87
2021/07/23 03:27:17;;;;;;;1.52;1.05;;;;;;;12.90;100.00;100581.09;1744282;82;21061;-89
2021/07/23 03:29:45;;;;;;;1.10;1.00;;;;;;;13.00;100.00;100582.09;1743467;82;21046;-90
2021/07/23 03:32:12;;;;;;;2.67;1.40;;;;;;;13.10;100.00;100578.69;1746688;81;22061;-90
2021/07/23 03:34:39;;;;;;;2.27;1.05;;;;;;;13.21;100.00;100582.11;1760719;80;21061;-87
2021/07/23 03:37:07;;;;;;;1.57;1.37;;;;;;;13.30;100.00;100583.13;1754457;80;21500;-90
2021/07/23 03:39:51;;;;;;;3.75;1.72;;;;;;;13.42;100.00;100585.98;1777130;80;21084;-89
2021/07/23 03:42:19;;;;;;;1.62;0.70;;;;;;;13.52;100.00;100590.77;1753933;80;21053;-87
2021/07/23 03:44:49;;;;;;;1.55;0.98;;;;;;;13.63;100.00;100592.83;1743682;82;21060;-88
2021/07/23 03:47:17;;;;;;;1.75;0.90;;;;;;;13.75;100.00;100591.83;1724808;82;21436;-87
2021/07/23 03:49:44;;;;;;;1.02;0.98;;;;;;;13.86;100.00;100595.80;1748135;80;21042;-87
2021/07/23 03:52:12;;;;;;;1.62;0.90;;;;;;;13.98;100.00;100592.04;1746713;81;21034;-88
2021/07/23 03:54:40;;;;;;;1.05;0.88;;;;;;;14.11;100.00;100590.46;1744913;82;21033;-91
2021/07/23 03:57:07;;;;;;;2.65;1.20;;;;;;;14.24;100.00;100586.93;1746817;81;21033;-91
2021/07/23 03:59:34;;;;;;;1.27;1.10;;;;;;;14.37;100.00;100586.74;1763293;80;21029;-88
2021/07/23 04:02:03;;;;;;;1.25;1.00;;;;;;;14.50;100.00;100585.95;1773261;78;21037;-87
2021/07/23 04:04:30;;;;;;;2.15;1.10;;;;;;;14.62;100.00;100584.94;1777723;80;21006;-87
2021/07/23 04:07:01;;;;;;;1.02;0.93;;;;;;;14.76;100.00;100586.88;1777567;80;21508;-90
2021/07/23 04:09:31;;;;;;;3.05;1.40;;;;;;;14.88;100.00;100584.44;1764507;80;21503;-87
2021/07/23 04:12:00;;;;;;;2.25;1.20;;;;;;;15.00;100.00;100587.50;1777411;80;21025;-87
2021/07/23 04:14:28;;;;;;;3.10;1.60;;;;;;;15.12;100.00;100587.56;1772726;78;21045;-87
2021/07/23 04:16:55;;;;;;;4.08;1.42;;;;;;;15.23;100.00;100584.84;1750155;80;21077;-90
2021/07/23 04:19:22;;;;;;;2.30;1.20;;;;;;;15.35;100.00;100585.13;1739249;81;21406;-88
2021/07/23 04:21:50;;;;;;;1.82;1.02;;;;;;;15.47;100.00;100581.29;1750283;81;20986;-87
2021/07/23 04:24:19;;;;;;;3.35;1.22;;;;;;;15.62;99.63;100580.70;1738797;81;20975;-87
2021/07/23 04:26:46;;;;;;;1.15;1.05;;;;;;;15.78;98.56;100586.16;1769059;80;21065;-91
2021/07/23 04:29:13;;;;;;;3.72;1.25;;;;;;;15.91;97.12;100581.14;1747847;80;21061;-88
2021/07/23 04:31:40;;;;;;;0.65;0.62;;;;;;;16.04;96.11;100588.30;1744995;81;21057;-91
2021/07/23 04:34:07;;;;;;;1.10;1.00;;;;;;;16.17;95.26;100579.17;1762496;80;21070;-89
2021/07/23 04:36:36;;;;;;;1.25;0.85;;;;;;;16.28;94.07;100581.09;1748367;80;21523;-87
2021/07/23 04:39:08;;;;;;;1.57;0.95;;;;;;;16.38;93.02;100578.64;1743940;80;21025;-90
2021/07/23 04:41:36;;;;;;;4.10;1.75;;;;;;;16.45;92.55;100577.63;1770351;80;21218;-87
2021/07/23 04:44:03;;;;;;;2.35;1.22;;;;;;;16.56;92.13;100584.49;1739703;81;21658;-89
2021/07/23 04:46:30;;;;;;;1.82;1.20;;;;;;;16.68;91.55;100586.67;1767793;80;21010;-91
2021/07/23 04:48:57;;;;;;;3.37;1.02;;;;;;;16.77;91.51;100581.45;1748883;80;21105;-87
2021/07/23 04:51:34;;;;;;;2.20;1.02;;;;;;;16.88;91.53;100577.05;1757615;80;20998;-90
2021/07/23 04:54:20;;;;;;;1.20;0.93;;;;;;;17.02;91.00;100572.23;1753623;80;21555;-90
2021/07/23 04:56:51;;;;;;;1.82;1.30;;;;;;;17.15;90.36;100574.05;1795057;78;21030;-91
2021/07/23 04:59:19;;;;;;;2.15;1.47;;;;;;;17.27;90.11;100572.63;1740076;81;22005;-87
2021/07/23 05:01:45;;;;;;;0.98;0.90;;;;;;;17.39;89.98;100568.68;1764995;81;21592;-93
2021/07/23 05:04:13;;;;;;;1.57;0.85;;;;;;;17.48;89.21;100566.75;1697193;82;21073;-88
2021/07/23 05:06:39;;;;;;;1.40;1.30;;;;;;;17.60;89.09;100569.66;1719832;80;21476;-92
2021/07/23 05:09:07;;;;;;;3.05;1.12;;;;;;;17.75;88.79;100569.75;1720291;82;21058;-87
2021/07/23 05:11:35;;;;;;;1.25;1.02;;;;;;;17.89;88.34;100572.39;1719151;82;21045;-93
2021/07/23 05:14:04;;;;;;;1.77;1.10;;;;;;;18.05;88.09;100572.16;1770322;80;20986;-92
2021/07/23 05:16:30;;;;;;;3.72;1.40;;;;;;;18.20;88.09;100568.61;1735216;81;21006;-93
2021/07/23 05:18:59;;;;;;;1.45;1.00;;;;;;;18.35;87.67;100566.73;1739515;81;21018;-90
2021/07/23 05:21:25;;;;;;;2.10;1.17;;;;;;;18.45;87.09;100565.58;1738388;82;21034;-89
2021/07/23 05:23:52;;;;;;;1.95;1.10;;;;;;;18.61;86.33;100569.41;1738869;81;21049;-93
2021/07/23 05:26:18;;;;;;;1.67;1.20;;;;;;;18.75;85.73;100568.41;1739440;80;21061;-93
2021/07/23 05:28:46;;;;;;;2.87;1.57;;;;;;;18.90;85.71;100570.65;1762090;81;21477;-92
2021/07/23 05:31:13;;;;;;;2.35;1.40;;;;;;;19.09;84.70;100568.86;1740528;81;21037;-88
2021/07/23 05:33:40;;;;;;;2.65;1.32;;;;;;;19.32;83.49;100576.30;1734041;81;21069;-89
2021/07/23 05:36:07;;;;;;;1.87;0.90;;;;;;;19.50;82.69;100565.33;1692421;84;21084;-88
2021/07/23 05:38:34;;;;;;;1.15;1.05;;;;;;;19.71;81.55;100561.80;1736508;79;21444;-89
2021/07/23 05:41:08;;;;;;;1.47;1.22;;;;;;;19.86;81.20;100563.95;1720770;81;21122;-94
2021/07/23 05:43:35;;;;;;;2.33;1.37;;;;;;;20.04;79.77;100567.95;1748013;81;21099;-93
2021/07/23 05:46:05;;;;;;;1.55;0.75;;;;;;;20.18;79.26;100570.67;1739035;81;21154;-94
2021/07/23 05:48:39;;;;;;;2.17;1.12;;;;;;;20.48;77.62;100567.75;1770233;80;21026;-89
2021/07/23 05:51:07;;;;;;;1.25;0.93;;;;;;;20.48;77.62;100567.75;1754883;80;21041;-89
2021/07/23 05:53:34;;;;;;;1.40;0.95;;;;;;;20.83;75.68;100577.09;1738361;82;21473;-92
2021/07/23 05:56:04;;;;;;;1.55;1.00;;;;;;;20.83;75.68;100577.09;1738085;82;21157;-93
2021/07/23 05:58:31;;;;;;;1.20;0.80;;;;;;;20.95;74.66;100575.70;1738604;81;21049;-89
2021/07/23 06:00:58;;;;;;;1.02;0.80;;;;;;;21.10;74.30;100580.34;1747854;81;21220;-95
2021/07/23 06:03:24;;;;;;;0.72;0.72;;;;;;;21.24;73.00;100579.39;1769050;80;21479;-94
2021/07/23 06:05:51;;;;;;;0.98;0.90;;;;;;;21.35;72.01;100572.80;1740583;81;20995;-88
2021/07/23 06:08:18;;;;;;;1.92;0.90;;;;;;;21.49;72.32;100574.67;1739835;81;20994;-93
2021/07/23 06:10:46;;;;;;;1.15;1.05;;;;;;;21.64;71.28;100573.13;1769020;81;21022;-88
2021/07/23 06:13:14;;;;;;;0.85;0.85;;;;;;;21.77;70.90;100573.31;1763010;81;21445;-89
2021/07/23 06:15:40;;;;;;;1.60;1.27;;;;;;;21.88;71.16;100564.72;1743348;81;21069;-88
2021/07/23 06:18:07;;;;;;;1.27;0.90;;;;;;;22.02;70.64;100571.25;1751990;80;21088;-94
2021/07/23 06:20:34;;;;;;;1.67;0.88;;;;;;;22.15;69.80;100580.35;1751467;80;21049;-94
2021/07/23 06:23:00;;;;;;;1.00;0.90;;;;;;;22.25;69.23;100579.87;1747406;81;21040;-94
2021/07/23 06:25:28;;;;;;;1.92;1.12;;;;;;;22.38;68.63;100577.02;1773219;80;21073;-89
2021/07/23 06:27:55;;;;;;;0.82;0.82;;;;;;;22.49;67.90;100574.76;1772160;79;21466;-88
2021/07/23 06:30:21;;;;;;;1.12;0.70;;;;;;;22.59;67.70;100574.02;1773637;80;21076;-90
2021/07/23 06:32:48;;;;;;;2.15;1.00;;;;;;;22.62;67.16;100571.30;1749794;80;21076;-89
2021/07/23 06:35:14;;;;;;;1.00;0.90;;;;;;;22.64;67.07;100568.17;1766636;80;21030;-94
2021/07/23 06:37:40;;;;;;;2.45;1.10;;;;;;;22.67;66.82;100572.43;1766522;80;21041;-94
2021/07/23 06:40:09;;;;;;;1.62;1.10;;;;;;;22.71;66.63;100564.98;1767238;80;21073;-89
2021/07/23 06:42:36;;;;;;;1.20;0.95;;;;;;;22.78;66.40;100564.37;1763772;80;21034;-89
2021/07/23 06:45:05;;;;;;;1.90;1.10;;;;;;;22.86;65.92;100566.75;1748893;80;21464;-89
2021/07/23 06:47:31;;;;;;;1.65;1.10;;;;;;;23.00;64.46;100567.13;1716218;82;21058;-89
2021/07/23 06:49:58;;;;;;;1.37;1.02;;;;;;;23.09;64.94;100569.13;1733935;82;21057;-89
2021/07/23 06:52:25;;;;;;;1.90;1.00;;;;;;;23.22;65.92;100565.67;1730026;82;21105;-85
2021/07/23 06:54:53;;;;;;;2.87;0.93;;;;;;;23.32;64.63;100565.70;1730157;82;21496;-85
2021/07/23 06:57:20;;;;;;;1.47;0.80;;;;;;;23.40;64.07;100552.13;1732808;82;21041;-86
2021/07/23 06:59:49;;;;;;;0.78;0.78;;;;;;;23.46;63.55;100557.62;1735465;82;21034;-85
2021/07/23 07:02:15;;;;;;;1.95;1.00;;;;;;;23.62;62.91;100557.59;1714623;83;21054;-85
2021/07/23 07:04:44;;;;;;;1.05;0.82;;;;;;;23.76;61.97;100557.11;1719836;82;21335;-91
2021/07/23 07:07:11;;;;;;;0.90;0.78;;;;;;;23.82;61.62;100548.68;1731135;82;21045;-85
2021/07/23 07:09:40;;;;;;;1.35;0.93;;;;;;;23.82;60.30;100557.05;1716776;82;21050;-84
2021/07/23 07:12:06;;;;;;;1.15;0.95;;;;;;;23.91;60.69;100548.44;1734375;82;21573;-86
2021/07/23 07:14:33;;;;;;;2.30;1.25;;;;;;;23.91;61.15;100552.63;1735312;82;21030;-85
2021/07/23 07:16:59;;;;;;;1.30;1.20;;;;;;;23.99;61.09;100552.42;1707836;82;21047;-85
2021/07/23 07:19:26;;;;;;;1.60;1.40;;;;;;;24.12;60.70;100547.48;1702494;83;21061;-83
2021/07/23 07:21:53;;;;;;;1.22;0.90;;;;;;;24.25;58.93;100550.91;1690820;83;21148;-83
2021/07/23 07:24:20;;;;;;;1.72;1.10;;;;;;;24.34;58.09;100544.52;1690853;83;21504;-83
2021/07/23 07:26:48;;;;;;;1.22;0.88;;;;;;;24.27;60.44;100544.97;1673951;85;21584;-83
2021/07/23 07:29:16;;;;;;;1.10;0.90;;;;;;;24.27;59.78;100540.19;1710990;82;21053;-84
2021/07/23 07:31:43;;;;;;;0.82;0.70;;;;;;;24.35;59.88;100544.72;1732413;81;21065;-84
2021/07/23 07:34:10;;;;;;;2.65;0.80;;;;;;;24.48;58.22;100544.57;1733376;82;21026;-83
2021/07/23 07:36:36;;;;;;;0.70;0.70;;;;;;;24.66;56.06;100545.70;1721953;82;21018;-84
2021/07/23 07:39:04;;;;;;;1.52;1.00;;;;;;;24.80;55.66;100543.73;1683147;84;21026;-83
2021/07/23 07:41:30;;;;;;;1.25;1.15;;;;;;;24.93;54.90;100544.36;1684931;83;21086;-83
2021/07/23 07:43:57;;;;;;;0.68;0.68;;;;;;;25.02;56.73;100547.08;1682641;85;21067;-82
2021/07/23 07:46:24;;;;;;;3.95;0.82;;;;;;;25.14;54.88;100548.06;1683527;84;21054;-85
2021/07/23 07:48:52;;;;;;;0.65;0.60;;;;;;;25.16;55.54;100542.31;1683292;85;21117;-84
2021/07/23 07:51:19;;;;;;;2.22;1.40;;;;;;;25.30;54.20;100542.55;1675050;84;21037;-83
2021/07/23 07:53:46;;;;;;;0.72;0.50;;;;;;;25.39;53.85;100538.07;1674848;84;21097;-83
2021/07/23 07:56:14;;;;;;;0.50;0.47;;;;;;;25.54;53.27;100539.07;1674898;85;21041;-83
2021/07/23 07:58:41;;;;;;;0.50;0.50;;;;;;;25.69;51.69;100534.47;1674914;84;21060;-83
2021/07/23 08:01:08;;;;;;;0.65;0.60;;;;;;;25.83;51.34;100536.05;1675787;84;21076;-86
2021/07/23 08:03:35;;;;;;;1.15;0.85;;;;;;;25.98;51.24;100534.25;1682995;84;21426;-86
2021/07/23 08:06:18;;;;;;;0.80;0.50;;;;;;;26.11;49.77;100536.19;1699179;83;21094;-85
2021/07/23 08:08:39;;;;;;;1.40;0.60;;;;;;;26.12;48.36;100533.62;1708282;83;21054;-86
2021/07/23 08:11:06;;;;;;;0.90;0.50;;;;;;;26.20;47.90;100531.70;1696273;83;21062;-85
2021/07/23 08:13:32;;;;;;;0.42;0.40;;;;;;;26.24;47.54;100531.16;1711724;82;20942;-86
2021/07/23 08:15:59;;;;;;;1.17;0.50;;;;;;;26.29;48.40;100528.80;1702507;82;21190;-85
2021/07/23 08:18:25;;;;;;;1.07;0.68;;;;;;;26.38;45.41;100531.27;1683894;84;21844;-86
2021/07/23 08:20:52;;;;;;;1.50;0.78;;;;;;;26.46;44.30;100521.77;1705793;83;20971;-86
2021/07/23 08:23:20;;;;;;;0.57;0.47;;;;;;;26.55;44.15;100522.26;1689313;84;21046;-85
2021/07/23 08:25:47;;;;;;;0.60;0.60;;;;;;;26.60;43.70;100528.11;1703721;84;21061;-85
2021/07/23 08:28:15;;;;;;;0.47;0.40;;;;;;;26.53;42.99;100523.27;1666666;84;21050;-86
2021/07/23 08:30:41;;;;;;;1.00;0.35;;;;;;;26.44;43.24;100521.94;1694445;84;21077;-85
2021/07/23 08:33:09;;;;;;;1.95;0.70;;;;;;;26.48;42.93;100527.77;1677798;84;21117;-86
2021/07/23 08:35:36;;;;;;;0.47;0.47;;;;;;;26.50;43.45;100522.59;1691349;84;21046;-85
2021/07/23 08:38:03;;;;;;;0.82;0.50;;;;;;;26.57;42.96;100522.68;1703423;84;21078;-86
2021/07/23 08:40:29;;;;;;;0.45;0.45;;;;;;;26.60;42.88;100520.50;1702219;83;21074;-86
2021/07/23 08:42:56;;;;;;;0.55;0.50;;;;;;;26.77;42.77;100522.45;1704031;84;21496;-85
2021/07/23 08:45:22;;;;;;;2.20;0.70;;;;;;;26.85;41.28;100529.71;1704437;84;21027;-87
2021/07/23 08:47:52;;;;;;;0.88;0.53;;;;;;;26.75;43.39;100527.63;1699747;84;21082;-87
2021/07/23 08:50:18;;;;;;;1.95;0.78;;;;;;;26.79;41.13;100527.08;1674277;85;21342;-85
2021/07/23 08:52:48;;;;;;;1.30;0.50;;;;;;;26.78;40.58;100524.05;1675228;85;21054;-86
2021/07/23 08:55:16;;;;;;;0.95;0.60;;;;;;;26.84;41.70;100525.31;1696735;84;21081;-85
2021/07/23 08:57:43;;;;;;;2.50;0.80;;;;;;;26.87;42.89;100521.72;1694817;84;21098;-85
2021/07/23 09:00:19;;;;;;;0.65;0.30;;;;;;;26.92;42.66;100526.17;1726310;83;21041;-87
2021/07/23 09:03:04;;;;;;;1.55;0.62;;;;;;;26.92;41.80;100522.77;1676167;84;21537;-85
2021/07/23 09:05:34;;;;;;;1.85;0.40;;;;;;;26.73;40.28;100523.01;1696443;84;21070;-85
2021/07/23 09:08:13;;;;;;;0.35;0.35;;;;;;;26.67;39.42;100534.38;1683831;84;21553;-87
2021/07/23 09:10:40;;;;;;;1.27;0.60;;;;;;;26.53;40.52;100519.63;1672120;84;21623;-87
2021/07/23 09:13:07;;;;;;;0.30;0.30;;;;;;;26.45;39.64;100515.94;1697090;84;21062;-86
2021/07/23 09:15:42;;;;;;;1.40;0.65;;;;;;;26.29;40.37;100517.59;1705157;81;21541;-86
2021/07/23 09:18:31;;;;;;;0.40;0.40;;;;;;;26.26;41.15;100521.75;1681341;83;21052;-85
2021/07/23 09:21:05;;;;;;;0.68;0.60;;;;;;;26.37;41.32;100520.67;1701805;83;21254;-86
2021/07/23 09:23:35;;;;;;;0.55;0.55;;;;;;;26.49;40.50;100519.59;1724497;83;21067;-86
2021/07/23 09:26:13;;;;;;;1.00;0.60;;;;;;;26.42;40.30;100509.71;1720405;83;21134;-85
2021/07/23 09:28:41;;;;;;;0.62;0.60;;;;;;;26.45;42.84;100513.13;1695908;83;21510;-86
2021/07/23 09:31:09;;;;;;;0.40;0.40;;;;;;;26.59;41.84;100518.91;1717361;81;21033;-84
2021/07/23 09:33:39;;;;;;;1.45;0.40;;;;;;;26.71;40.71;100517.01;1724272;83;21076;-84
2021/07/23 09:36:12;;;;;;;1.23;0.53;;;;;;;26.74;39.21;100523.23;1722302;83;21844;-87
2021/07/23 09:38:43;;;;;;;1.95;0.93;;;;;;;26.70;40.78;100520.38;1712258;82;21029;-86
2021/07/23 09:41:15;;;;;;;;;;;;;;;26.59;40.24;100513.30;1719200;82;21105;-85
2021/07/23 09:43:45;;;;;;;0.40;0.30;;;;;;;26.58;41.34;100512.27;1684914;83;20673;-85
2021/07/23 09:46:21;;;;;;;1.80;0.42;;;;;;;26.67;40.07;100514.77;1710995;83;21055;-85
2021/07/23 09:48:48;;;;;;;0.40;0.20;;;;;;;26.72;39.51;100514.41;1713725;83;21046;-85
2021/07/23 09:51:15;;;;;;;0.40;0.40;;;;;;;26.74;40.70;100512.02;1727072;83;21847;-85
2021/07/23 09:53:42;;;;;;;2.25;0.62;;;;;;;26.87;41.02;100504.91;1717286;82;21061;-85
2021/07/23 09:56:10;;;;;;;2.37;0.50;;;;;;;27.03;39.48;100508.23;1701911;83;21568;-85
2021/07/23 09:58:40;;;;;;;1.17;0.60;;;;;;;27.13;39.59;100500.29;1729318;82;21414;-85
2021/07/23 10:01:11;;;;;;;0.47;0.40;;;;;;;27.17;38.93;100499.09;1728572;82;21062;-85
2021/07/23 10:03:44;;;;;;;0.60;0.60;;;;;;;27.06;38.08;100492.62;1719457;83;21094;-86
2021/07/23 10:06:15;;;;;;;1.52;0.62;;;;;;;26.85;38.95;100504.48;1718154;83;21315;-86
2021/07/23 10:08:47;;;;;;;0.55;0.47;;;;;;;26.70;38.70;100502.77;1721571;83;21057;-85
2021/07/23 10:11:17;;;;;;;0.30;0.30;;;;;;;26.65;37.84;100498.33;1723714;82;21533;-85
2021/07/23 10:13:43;;;;;;;0.40;0.40;;;;;;;26.60;39.34;100502.28;1709875;83;21510;-85
2021/07/23 10:16:10;;;;;;;0.45;0.45;;;;;;;26.57;41.52;100494.66;1699884;83;21141;-85
2021/07/23 10:18:38;;;;;;;1.67;0.57;;;;;;;26.53;41.96;100493.02;1725866;82;21121;-85
2021/07/23 10:21:05;;;;;;;0.30;0.30;;;;;;;26.54;39.79;100497.45;1715223;82;21049;-85
2021/07/23 10:23:33;;;;;;;1.05;0.40;;;;;;;26.58;38.95;100493.48;1700781;83;21240;-85
2021/07/23 10:26:01;;;;;;;0.75;0.75;;;;;;;26.63;39.13;100499.91;1704604;83;21663;-85
2021/07/23 10:28:40;;;;;;;0.57;0.50;;;;;;;26.67;38.69;100492.34;1700548;83;21046;-86
2021/07/23 10:31:32;;;;;;;1.22;0.55;;;;;;;26.61;38.42;100496.11;1725711;82;21629;-86
2021/07/23 10:34:00;;;;;;;0.40;0.40;;;;;;;26.55;38.37;100487.23;1725305;82;26445;-86
2021/07/23 10:36:32;;;;;;;0.30;0.30;;;;;;;26.58;38.07;100493.48;1713858;83;21050;-86
2021/07/23 10:39:09;;;;;;;0.20;0.20;;;;;;;26.67;37.77;100489.55;1715884;82;21150;-85
2021/07/23 10:41:38;;;;;;;0.50;0.30;;;;;;;26.79;36.91;100484.42;1689936;82;21014;-86
2021/07/23 10:44:25;;;;;;;0.55;0.40;;;;;;;26.91;38.48;100486.12;1699103;84;21066;-86
2021/07/23 10:46:59;;;;;;;2.37;0.90;;;;;;;27.03;37.51;100477.99;1701405;83;21053;-85
2021/07/23 10:49:34;;;;;;;0.37;0.37;;;;;;;27.12;38.99;100477.63;1702182;83;21050;-85
2021/07/23 10:52:02;;;;;;;1.17;0.57;;;;;;;27.30;39.32;100488.40;1725589;83;21291;-85
2021/07/23 10:54:34;;;;;;;0.30;0.30;;;;;;;27.58;38.26;100477.09;1730204;79;21559;-86
2021/07/23 10:57:06;;;;;;;0.57;0.57;;;;;;;27.73;36.70;100478.75;1728669;82;21551;-86
2021/07/23 10:59:44;;;;;;;0.90;0.42;;;;;;;27.79;36.96;100482.77;1717441;83;21030;-85
2021/07/23 11:02:18;;;;;;;0.50;0.50;;;;;;;27.74;36.91;100479.55;1717417;82;21117;-86
2021/07/23 11:04:53;;;;;;;0.80;0.60;;;;;;;27.76;36.11;100475.14;1688370;83;21054;-86
2021/07/23 11:07:25;;;;;;;0.80;0.37;;;;;;;27.79;35.33;100475.74;1726771;82;21067;-86
2021/07/23 11:09:53;;;;;;;0.60;0.60;;;;;;;27.78;36.38;100470.55;1723304;82;21090;-86
2021/07/23 11:12:31;;;;;;;0.90;0.70;;;;;;;27.68;36.61;100465.70;1716424;82;21042;-86
2021/07/23 11:15:06;;;;;;;0.82;0.68;;;;;;;27.68;37.22;100466.50;1727090;83;21051;-86
2021/07/23 11:17:36;;;;;;;0.50;0.50;;;;;;;27.66;37.90;100461.88;1732302;82;21031;-86
2021/07/23 11:20:03;;;;;;;0.78;0.78;;;;;;;27.67;37.35;100462.09;1732415;82;21089;-86
2021/07/23 11:22:32;;;;;;;0.57;0.50;;;;;;;27.75;39.08;100462.31;1707456;82;21667;-86
2021/07/23 11:25:05;;;;;;;1.10;0.40;;;;;;;27.84;37.37;100461.38;1686582;85;21074;-86
2021/07/23 11:27:37;;;;;;;0.57;0.40;;;;;;;27.77;37.29;100460.50;1705524;83;21133;-86
2021/07/23 11:30:15;;;;;;;;;;;;;;;27.76;36.79;100461.10;1708274;82;21528;-85